Harbor Island, New York
Current Conditions -  °F | °C
As of 9:51 PM on Monday 26 Jan 2015 (Local Time) from KJFK Reporting Station
Light Snow Light Snow  
Wind Chill: 12°   Ceiling: 2000
Heat Index: 27°   Visibility: 1.5mi
Dew Point: 22°   Wind: 24mph
Humidity: 81%   Direction: 20°NNE
Pressure: 29.74"   Gusts: 36mph
Location:  40.6062°N, 73.6508°W
Report Text: KJFK 270251Z 02021G31KT 1 1/2SM -SN SCT012 OVC020 M03/M06 A2974 RMK AO2 PK WND 02033/0235 SFC VIS 2 SLP070 PRESENT WX DRSN P0000 60005 T10281056 56027
Loading
Personal Weather Stations






























Interactive Weather Map New forecast layout! Learn more

10-Day Weather Forecast

Advertisements
Track Severe Weather on mobile